Miho Air Base, Japan

5:39 AM JST on February 14, 2016 (GMT +0900)
Miho Aero | | Change Station
CLOSE
Current Station
Airport
Location: Miho AB,
Elevation: 20 ft
Nearby Weather Stations

Elev 20 ft 35.49 °N, 133.24 °E | Updated 39 minutes ago

Light Rain Showers
Light Showers Rain
59 °F
Feels Like 59 °F
N
17
Wind Variable Wind from West

Today
High -- | Low -- °F
--% Chance of Precip.
Yesterday
High -- | Low -- °F
Precip. -- in
Pressure 29.53 in
Visibility 6.2 miles
Clouds Few 900 ft
Mostly Cloudy 2000 ft
Overcast 3500 ft
Dew Point 55 °F
Humidity 88%
Rainfall 0.00 in
Snow Depth Not available.
6:55 AM 5:47 PM
Waxing Crescent, 34% visible
METAR RJOH 132000Z 26015KT 9999 -SHRA FEW009 BKN020 OVC035 15/13 Q1000
Pressure 29.53 in
Visibility 6.2 miles
Clouds Few 900 ft
Mostly Cloudy 2000 ft
Overcast 3500 ft
Dew Point 55 °F
Humidity 88%
Rainfall 0.00 in
Snow Depth Not available.
6:55 AM 5:47 PM
Waxing Crescent, 34% visible
METAR RJOH 132000Z 26015KT 9999 -SHRA FEW009 BKN020 OVC035 15/13 Q1000

10-Day Weather Forecast

No radar image for this location.
×

Almanac

Astronomy

Feb. 14, 2016 Rise Set
Actual Time
Civil Twilight
Nautical Twilight
Astronomical Twilight
Moon
Length of Visible Light
Length of Day
Tomorrow will be .
, % of the Moon is Illuminated

Today's Extremes

Country Highs Country Lows

Community

WunderPhotos

Upload Photos

1,892,664 photos uploaded!

WunderBlog® & News

Nearby

Air Quality

  Air Quality AQ Index Pollutant
Not available.

Snow Depth

Station Depth Elevation

Earthquake Activity

City Distance Mag. Time & Date
Minimum magnitude displayed is 2.5.

Coastal Water Temperatures

Place Temperature

Stations

Nearby Weather Stations

Station Location Temp. Windchill Dew Point Humidity Wind Precip. Elev Updated Type